createdAt,value
2018-11-14T10:14:17.662Z,15.60
2018-11-14T10:16:59.526Z,15.70
2018-11-14T10:19:28.134Z,15.70
2018-11-14T10:22:20.994Z,15.80
2018-11-14T10:24:51.646Z,15.80
2018-11-14T10:51:27.161Z,16.10
2018-11-14T10:53:55.821Z,16.10
2018-11-14T10:56:24.650Z,16.20
2018-11-14T11:29:06.835Z,16.50
2018-11-14T11:31:35.858Z,16.60
2018-11-14T11:34:04.599Z,16.60
2018-11-14T11:36:34.813Z,16.60
2018-11-14T11:39:05.146Z,16.60
2018-11-14T11:41:33.627Z,16.60
2018-11-14T11:44:02.129Z,16.60
2018-11-14T11:46:30.683Z,16.50
2018-11-14T11:48:59.390Z,16.50
2018-11-14T11:51:27.936Z,16.50
2018-11-14T11:53:56.751Z,16.50
2018-11-14T11:56:25.316Z,16.50
2018-11-14T13:12:49.039Z,17.40
2018-11-14T13:15:18.268Z,17.40
2018-11-14T13:17:46.687Z,17.40
2018-11-14T13:20:17.448Z,17.40
2018-11-14T13:22:46.095Z,17.40
2018-11-14T13:25:15.238Z,17.40
2018-11-14T13:43:52.074Z,17.10
2018-11-14T13:46:20.543Z,17.00
2018-11-14T13:48:49.045Z,16.90
2018-11-14T13:51:17.688Z,16.90
2018-11-14T13:53:46.273Z,16.90
2018-11-14T13:56:14.728Z,16.70
2018-11-14T14:12:28.891Z,16.40
2018-11-14T14:42:29.663Z,15.90
2018-11-14T17:59:39.187Z,13.70
2018-11-14T18:02:07.848Z,13.70
2018-11-14T18:04:36.283Z,13.70
2018-11-14T18:07:04.868Z,13.70
2018-11-14T18:09:33.367Z,13.80
2018-11-14T18:12:01.831Z,13.70
2018-11-14T20:28:54.463Z,13.00
2018-11-14T20:31:22.943Z,13.00
2018-11-14T20:33:51.443Z,13.00
2018-11-14T20:36:19.949Z,13.10
2018-11-14T20:38:48.558Z,13.00
2018-11-14T20:41:17.228Z,13.10
2018-11-14T20:43:45.869Z,13.10
2018-11-14T20:46:14.428Z,13.10
2018-11-14T20:48:42.925Z,13.00
2018-11-14T20:51:11.474Z,13.10
2018-11-14T20:53:40.155Z,13.00
2018-11-14T20:56:17.918Z,13.00
2018-11-14T20:58:47.707Z,13.00
2018-11-14T21:01:16.255Z,13.00
2018-11-14T21:03:44.767Z,12.90
2018-11-14T21:06:13.210Z,12.90
2018-11-14T21:08:41.667Z,12.90
2018-11-14T21:11:10.242Z,12.90
2018-11-14T21:13:38.717Z,13.00
2018-11-14T21:16:11.040Z,13.00
2018-11-14T21:18:39.560Z,12.90
2018-11-14T21:21:08.028Z,12.80
2018-11-14T21:23:36.504Z,12.90
2018-11-14T21:26:05.051Z,12.80
2018-11-14T21:28:33.629Z,12.80
